createdAt,value
2018-12-03T00:00:27.521Z,994.14
2018-12-03T00:01:28.041Z,994.14
2018-12-03T00:02:29.617Z,994.15
2018-12-03T00:03:30.078Z,994.14
2018-12-03T00:04:31.645Z,994.13
2018-12-03T00:05:32.187Z,994.09
2018-12-03T00:06:34.727Z,994.18
2018-12-03T00:07:35.229Z,993.96
2018-12-03T00:08:35.757Z,993.99
2018-12-03T00:09:36.279Z,994.03
2018-12-03T00:10:45.404Z,994.01
2018-12-03T00:11:45.924Z,993.99
2018-12-03T00:12:47.564Z,994.01
2018-12-03T00:13:48.081Z,993.98
2018-12-03T00:14:49.656Z,993.97
2018-12-03T00:15:50.146Z,993.97
2018-12-03T00:16:51.684Z,993.99
2018-12-03T00:17:52.245Z,993.96
2018-12-03T00:18:53.869Z,993.96
2018-12-03T00:19:54.411Z,993.95
2018-12-03T00:21:02.906Z,993.87
2018-12-03T00:22:03.391Z,993.82
2018-12-03T00:23:10.904Z,993.80
2018-12-03T00:24:11.389Z,993.80
2018-12-03T00:25:12.994Z,993.76
2018-12-03T00:26:13.449Z,993.72
2018-12-03T00:27:14.983Z,993.74
2018-12-03T00:28:15.496Z,993.81
2018-12-03T00:29:24.952Z,993.73
2018-12-03T00:30:25.503Z,993.68
2018-12-03T00:31:28.026Z,993.72
2018-12-03T00:32:28.554Z,993.73
2018-12-03T00:33:29.058Z,993.69
2018-12-03T00:34:29.550Z,993.76
2018-12-03T00:35:31.128Z,993.77
2018-12-03T00:36:31.634Z,993.79
2018-12-03T00:37:32.295Z,993.80
2018-12-03T00:38:32.782Z,993.83
2018-12-03T00:39:33.435Z,993.81
2018-12-03T00:40:33.900Z,993.81
2018-12-03T00:41:34.441Z,993.83
2018-12-03T00:42:34.933Z,993.83
2018-12-03T00:43:37.514Z,993.79
2018-12-03T00:44:38.039Z,993.74
2018-12-03T00:45:40.606Z,993.74
2018-12-03T00:46:41.131Z,993.75
2018-12-03T00:47:43.692Z,993.74
2018-12-03T00:48:44.264Z,993.80
2018-12-03T00:49:59.362Z,993.83
2018-12-03T00:50:59.889Z,993.84
2018-12-03T00:52:01.439Z,993.78
2018-12-03T00:53:01.938Z,993.76
2018-12-03T00:54:02.457Z,993.75
2018-12-03T00:55:02.993Z,993.73
2018-12-03T00:56:11.379Z,993.70
2018-12-03T00:57:11.916Z,993.70
2018-12-03T00:58:13.454Z,993.73
2018-12-03T00:59:13.952Z,993.68
2018-12-03T01:00:14.605Z,993.78
2018-12-03T01:01:15.102Z,993.85
2018-12-03T01:02:16.660Z,993.89
2018-12-03T01:03:17.172Z,993.92
2018-12-03T01:04:17.817Z,993.90
2018-12-03T01:05:18.330Z,993.98
2018-12-03T01:06:18.930Z,993.98
2018-12-03T01:07:19.439Z,994.03
2018-12-03T01:08:19.977Z,993.93
2018-12-03T01:09:20.492Z,994.01
2018-12-03T01:10:21.013Z,994.02
2018-12-03T01:11:21.569Z,993.98
2018-12-03T01:12:22.152Z,993.95
2018-12-03T01:13:22.674Z,993.93
2018-12-03T01:14:23.297Z,993.91
2018-12-03T01:15:23.813Z,993.91
2018-12-03T01:16:24.321Z,993.94
2018-12-03T01:17:24.836Z,993.92
2018-12-03T01:18:25.472Z,993.97
2018-12-03T01:19:26.001Z,994.01
2018-12-03T01:20:26.517Z,994.00
2018-12-03T01:21:27.043Z,994.00
2018-12-03T01:22:27.640Z,994.04
2018-12-03T01:23:28.182Z,994.03
2018-12-03T01:24:28.786Z,994.01
2018-12-03T01:25:29.313Z,993.99
2018-12-03T01:26:29.941Z,993.98
2018-12-03T01:27:30.438Z,994.06
2018-12-03T01:28:31.149Z,994.00
2018-12-03T01:29:31.666Z,994.01
2018-12-03T01:30:32.233Z,994.04
2018-12-03T01:31:32.756Z,993.95
2018-12-03T01:32:34.356Z,994.02
2018-12-03T01:33:34.883Z,994.00
2018-12-03T01:34:35.505Z,993.94
2018-12-03T01:35:35.989Z,993.95
2018-12-03T01:36:36.532Z,993.93
2018-12-03T01:37:37.045Z,993.94
2018-12-03T01:38:37.582Z,993.88
2018-12-03T01:39:38.062Z,993.83
2018-12-03T01:40:38.612Z,993.88
2018-12-03T01:41:39.162Z,993.88
2018-12-03T01:42:39.733Z,993.90
2018-12-03T01:43:40.240Z,993.90
2018-12-03T01:44:40.768Z,993.85
2018-12-03T01:45:41.298Z,993.91
2018-12-03T01:46:41.792Z,993.91
2018-12-03T01:47:42.438Z,993.92
2018-12-03T01:48:42.996Z,993.92
2018-12-03T01:49:43.507Z,993.98
2018-12-03T01:50:44.009Z,994.01
2018-12-03T01:51:44.646Z,993.97
2018-12-03T01:52:45.163Z,993.97
2018-12-03T01:53:45.759Z,993.95
2018-12-03T01:54:46.256Z,993.97
2018-12-03T01:55:46.772Z,994.00
2018-12-03T01:56:47.277Z,994.00
2018-12-03T01:57:47.825Z,993.98
2018-12-03T01:58:48.339Z,993.93
2018-12-03T01:59:48.861Z,993.98
2018-12-03T02:00:49.376Z,994.01
2018-12-03T02:01:49.868Z,993.99
2018-12-03T02:02:50.410Z,994.00
2018-12-03T02:03:50.941Z,994.00
2018-12-03T02:04:51.445Z,994.05
2018-12-03T02:05:51.984Z,994.04
2018-12-03T02:06:52.508Z,994.08
2018-12-03T02:07:53.013Z,994.01
2018-12-03T02:08:53.549Z,994.02
2018-12-03T02:09:54.067Z,994.04
2018-12-03T02:10:54.568Z,994.03
2018-12-03T02:11:55.196Z,994.03
2018-12-03T02:12:55.707Z,994.00
2018-12-03T02:13:56.317Z,993.96
2018-12-03T02:14:56.825Z,993.99
2018-12-03T02:15:57.357Z,993.97
2018-12-03T02:16:57.879Z,993.90
2018-12-03T02:17:58.417Z,993.89
2018-12-03T02:18:59.037Z,993.90
2018-12-03T02:19:59.526Z,993.81
2018-12-03T02:21:00.070Z,993.76
2018-12-03T02:22:00.618Z,993.86
2018-12-03T02:23:01.213Z,993.80
2018-12-03T02:24:01.696Z,993.80
2018-12-03T02:25:02.252Z,993.77
2018-12-03T02:26:02.790Z,993.77
2018-12-03T02:27:03.374Z,993.76
2018-12-03T02:28:04.057Z,993.74
2018-12-03T02:29:04.643Z,993.74
2018-12-03T02:30:05.138Z,993.72
2018-12-03T02:31:05.653Z,993.74
2018-12-03T02:32:06.166Z,993.70
2018-12-03T02:33:06.675Z,993.69
2018-12-03T02:34:07.179Z,993.71
2018-12-03T02:35:07.711Z,993.61
2018-12-03T02:36:08.214Z,993.72
2018-12-03T02:37:08.740Z,993.63
2018-12-03T02:38:09.240Z,993.67
2018-12-03T02:39:09.730Z,993.70
2018-12-03T02:40:10.316Z,993.64
2018-12-03T02:41:10.831Z,993.63
2018-12-03T02:42:11.450Z,993.64
2018-12-03T02:43:11.988Z,993.59
2018-12-03T02:44:12.620Z,993.60
2018-12-03T02:45:13.428Z,993.56
2018-12-03T02:46:13.977Z,993.56
2018-12-03T02:47:14.481Z,993.52
2018-12-03T02:48:15.078Z,993.45
2018-12-03T02:49:15.590Z,993.50
2018-12-03T02:50:16.129Z,993.48
2018-12-03T02:51:16.626Z,993.47
2018-12-03T02:52:17.153Z,993.49
2018-12-03T02:53:17.662Z,993.41
2018-12-03T02:54:18.192Z,993.42
2018-12-03T02:55:18.687Z,993.41
2018-12-03T02:56:19.227Z,993.41
2018-12-03T02:57:19.731Z,993.38
2018-12-03T02:58:20.268Z,993.32
2018-12-03T02:59:20.806Z,993.37
2018-12-03T03:00:21.300Z,993.42
2018-12-03T03:01:21.936Z,993.38
2018-12-03T03:02:22.425Z,993.39
2018-12-03T03:03:22.982Z,993.34
2018-12-03T03:04:23.513Z,993.34
2018-12-03T03:05:24.139Z,993.43
2018-12-03T03:06:24.604Z,993.37
2018-12-03T03:07:25.246Z,993.42
2018-12-03T03:08:25.760Z,993.43
2018-12-03T03:09:26.367Z,993.48
2018-12-03T03:10:26.887Z,993.47
2018-12-03T03:11:27.416Z,993.50
2018-12-03T03:12:27.967Z,993.55
2018-12-03T03:13:28.456Z,993.43
2018-12-03T03:14:28.970Z,993.44
2018-12-03T03:15:29.489Z,993.41
2018-12-03T03:16:30.031Z,993.41
2018-12-03T03:17:30.526Z,993.42
2018-12-03T03:18:31.141Z,993.44
2018-12-03T03:19:31.648Z,993.44
2018-12-03T03:20:32.193Z,993.36
2018-12-03T03:21:32.711Z,993.40
2018-12-03T03:22:33.309Z,993.36
2018-12-03T03:23:33.815Z,993.37
2018-12-03T03:24:35.383Z,993.37
2018-12-03T03:25:35.924Z,993.40
2018-12-03T03:26:36.424Z,993.38
2018-12-03T03:27:36.950Z,993.40
2018-12-03T03:28:39.516Z,993.42
2018-12-03T03:29:40.061Z,993.46
2018-12-03T03:30:40.807Z,993.45
2018-12-03T03:31:41.179Z,993.39
2018-12-03T03:32:41.787Z,993.48
2018-12-03T03:33:42.322Z,993.50
2018-12-03T03:34:42.925Z,993.52
2018-12-03T03:35:43.473Z,993.54
2018-12-03T03:36:44.071Z,993.59
2018-12-03T03:37:44.569Z,993.55
2018-12-03T03:38:45.196Z,993.61
2018-12-03T03:39:45.724Z,993.55
2018-12-03T03:40:46.347Z,993.61
2018-12-03T03:41:46.833Z,993.56
2018-12-03T03:42:47.368Z,993.55
2018-12-03T03:44:08.882Z,993.58
2018-12-03T03:45:09.396Z,993.59
2018-12-03T03:46:09.920Z,993.62
2018-12-03T03:47:10.429Z,993.64
2018-12-03T03:48:10.963Z,993.69
2018-12-03T03:49:11.470Z,993.66
2018-12-03T03:50:12.013Z,993.69
2018-12-03T03:51:12.530Z,993.69
2018-12-03T03:52:13.032Z,993.77
2018-12-03T03:53:13.535Z,993.73
2018-12-03T03:54:14.015Z,993.76
2018-12-03T03:55:14.520Z,993.75
2018-12-03T03:56:15.019Z,993.78
2018-12-03T03:57:15.629Z,993.82
2018-12-03T03:58:16.159Z,993.83
2018-12-03T03:59:16.620Z,993.86
2018-12-03T04:00:17.142Z,993.90
2018-12-03T04:01:19.643Z,993.79
2018-12-03T04:02:20.153Z,993.75
2018-12-03T04:03:21.730Z,993.73
2018-12-03T04:04:22.231Z,993.64
2018-12-03T04:05:22.715Z,993.58
2018-12-03T04:06:23.216Z,993.52
2018-12-03T04:07:23.781Z,993.38
2018-12-03T04:08:24.300Z,993.46
2018-12-03T04:09:24.814Z,993.65
2018-12-03T04:10:25.342Z,993.67
2018-12-03T04:11:25.953Z,993.63
2018-12-03T04:12:26.468Z,993.63
2018-12-03T04:13:33.959Z,993.65
2018-12-03T04:14:34.568Z,993.63
2018-12-03T04:15:35.078Z,993.61
2018-12-03T04:16:36.640Z,993.55
2018-12-03T04:17:38.221Z,993.63
2018-12-03T04:18:38.720Z,993.69
2018-12-03T04:19:39.376Z,993.60
2018-12-03T04:20:39.814Z,993.59
2018-12-03T04:21:41.397Z,993.55
2018-12-03T04:22:41.894Z,993.53
2018-12-03T04:23:42.413Z,993.53
2018-12-03T04:24:44.285Z,993.53
2018-12-03T04:25:44.809Z,993.56
2018-12-03T04:26:45.303Z,993.58
2018-12-03T04:27:45.819Z,993.61
2018-12-03T04:28:47.788Z,993.65
2018-12-03T04:29:48.350Z,993.60
2018-12-03T04:32:00.965Z,993.56
2018-12-03T04:33:01.456Z,993.64
2018-12-03T04:34:04.084Z,993.65
2018-12-03T04:35:04.589Z,993.66
2018-12-03T04:36:05.113Z,993.60
2018-12-03T04:37:07.698Z,993.60
2018-12-03T04:38:08.220Z,993.61
2018-12-03T04:39:24.454Z,993.53
2018-12-03T04:40:24.926Z,993.48
2018-12-03T04:41:49.432Z,993.44
2018-12-03T04:42:49.913Z,993.55
2018-12-03T04:43:51.513Z,993.55
2018-12-03T04:44:51.960Z,993.53
2018-12-03T04:46:01.417Z,993.51
2018-12-03T04:47:01.972Z,993.54
2018-12-03T04:48:04.505Z,993.58
2018-12-03T04:49:04.998Z,993.60
2018-12-03T04:50:26.648Z,993.59
2018-12-03T04:51:27.139Z,993.62
2018-12-03T04:52:50.750Z,993.67
2018-12-03T04:53:51.230Z,993.58
2018-12-03T04:54:51.839Z,993.58
2018-12-03T04:55:52.349Z,993.62
2018-12-03T04:56:52.907Z,993.64
2018-12-03T04:57:53.431Z,993.62
2018-12-03T04:59:10.010Z,993.55
2018-12-03T05:00:12.566Z,993.56
2018-12-03T05:01:13.090Z,993.58
2018-12-03T05:02:15.665Z,993.63
2018-12-03T05:03:16.266Z,993.64
2018-12-03T05:04:16.784Z,993.64
2018-12-03T05:05:38.340Z,993.59
2018-12-03T05:06:38.818Z,993.63
2018-12-03T05:07:41.413Z,993.65
2018-12-03T05:08:41.887Z,993.63
2018-12-03T05:09:58.487Z,993.68
2018-12-03T05:10:59.045Z,993.67
2018-12-03T05:12:22.571Z,993.70
2018-12-03T05:13:23.099Z,993.71
2018-12-03T05:14:32.411Z,993.72
2018-12-03T05:15:40.928Z,993.65
2018-12-03T05:16:41.427Z,993.74
2018-12-03T05:17:42.981Z,993.73
2018-12-03T05:18:43.501Z,993.77
2018-12-03T05:19:45.048Z,993.78
2018-12-03T05:20:45.603Z,993.80
2018-12-03T05:21:46.124Z,993.78
2018-12-03T05:22:55.508Z,993.78
2018-12-03T05:23:56.026Z,993.76
2018-12-03T05:25:11.489Z,993.88
2018-12-03T05:26:12.021Z,993.88
2018-12-03T05:27:21.473Z,993.87
2018-12-03T05:28:21.947Z,993.86
2018-12-03T05:29:30.468Z,993.82
2018-12-03T05:30:30.985Z,993.87
2018-12-03T06:56:06.994Z,994.17
2018-12-03T06:57:07.489Z,994.22
2018-12-03T07:00:01.505Z,994.11
2018-12-03T07:01:02.076Z,994.09
2018-12-03T07:03:56.099Z,994.12
2018-12-03T07:04:56.646Z,994.18
2018-12-03T07:05:57.195Z,994.11
2018-12-03T07:06:57.712Z,994.17
2018-12-03T07:07:58.196Z,994.16
2018-12-03T07:08:58.754Z,994.24
2018-12-03T07:09:59.276Z,994.20
2018-12-03T07:10:59.778Z,994.25
2018-12-03T07:12:00.271Z,994.21
2018-12-03T07:13:00.789Z,994.27
2018-12-03T07:14:01.275Z,994.28
2018-12-03T07:15:01.793Z,994.21
2018-12-03T07:16:02.294Z,994.24
2018-12-03T07:17:02.794Z,994.21
2018-12-03T07:18:03.302Z,994.27
2018-12-03T07:19:03.806Z,994.27
2018-12-03T07:20:04.315Z,994.26
2018-12-03T07:21:04.814Z,994.31
2018-12-03T07:22:05.351Z,994.33
2018-12-03T07:23:05.856Z,994.28
2018-12-03T07:24:06.416Z,994.31
2018-12-03T07:25:07.043Z,994.34
2018-12-03T07:26:07.544Z,994.33
2018-12-03T07:27:08.215Z,994.34
2018-12-03T07:28:08.702Z,994.35
2018-12-03T07:29:09.192Z,994.37
2018-12-03T07:30:09.717Z,994.35
2018-12-03T07:31:10.229Z,994.43
2018-12-03T07:32:10.742Z,994.39
2018-12-03T07:33:11.431Z,994.43
2018-12-03T07:34:11.945Z,994.40
2018-12-03T07:35:12.477Z,994.40
2018-12-03T07:36:13.007Z,994.52
2018-12-03T07:37:13.499Z,994.41
2018-12-03T07:38:14.039Z,994.45
2018-12-03T07:39:14.538Z,994.43
2018-12-03T07:40:15.043Z,994.49
2018-12-03T07:41:15.657Z,994.44
2018-12-03T07:42:16.171Z,994.44
2018-12-03T07:43:16.700Z,994.46
2018-12-03T07:44:17.191Z,994.52
2018-12-03T07:45:17.708Z,994.47
2018-12-03T07:46:18.237Z,994.58
2018-12-03T07:47:18.996Z,994.56
2018-12-03T07:48:19.478Z,994.59
2018-12-03T07:49:20.010Z,994.57
2018-12-03T07:50:20.576Z,994.55
2018-12-03T07:51:22.275Z,994.47
2018-12-03T07:52:22.792Z,994.55
2018-12-03T07:53:23.540Z,994.56
2018-12-03T07:54:24.036Z,994.58
2018-12-03T07:55:40.179Z,994.64
2018-12-03T07:56:40.696Z,994.63
2018-12-03T07:57:41.370Z,994.55
2018-12-03T07:58:41.900Z,994.69
2018-12-03T07:59:42.632Z,994.67
2018-12-03T08:00:43.160Z,994.72
2018-12-03T08:01:43.763Z,994.70
2018-12-03T08:02:44.284Z,994.67
2018-12-03T08:03:46.892Z,994.69
2018-12-03T08:04:47.368Z,994.67
2018-12-03T08:05:47.994Z,994.65
2018-12-03T08:06:48.470Z,994.72
2018-12-03T08:07:49.122Z,994.72
2018-12-03T08:08:49.672Z,994.73
2018-12-03T08:09:50.271Z,994.72
2018-12-03T08:10:50.752Z,994.74
2018-12-03T08:11:51.523Z,994.82
2018-12-03T08:12:52.031Z,994.75
2018-12-03T08:13:52.708Z,994.82
2018-12-03T08:14:53.169Z,994.77
2018-12-03T08:15:53.800Z,994.85
2018-12-03T08:16:54.323Z,994.83
2018-12-03T08:17:54.936Z,994.88
2018-12-03T08:18:55.561Z,994.80
2018-12-03T08:19:56.632Z,994.80
2018-12-03T08:20:56.731Z,994.84
2018-12-03T08:21:57.326Z,994.86
2018-12-03T08:22:57.831Z,994.86
2018-12-03T08:23:59.476Z,994.88
2018-12-03T08:25:00.009Z,994.93
2018-12-03T08:26:00.653Z,994.92
2018-12-03T08:27:01.188Z,994.90
2018-12-03T08:28:01.730Z,994.86
2018-12-03T08:29:02.217Z,994.83
2018-12-03T08:31:13.107Z,994.87
2018-12-03T08:32:20.680Z,994.82
2018-12-03T08:33:21.315Z,994.81
2018-12-03T08:34:22.486Z,994.82
2018-12-03T08:35:23.013Z,994.82
2018-12-03T08:36:23.584Z,994.82
2018-12-03T08:37:24.087Z,994.75
2018-12-03T08:38:24.741Z,994.79
2018-12-03T08:39:25.249Z,994.82
2018-12-03T08:40:25.725Z,994.79
2018-12-03T08:41:28.350Z,994.82
2018-12-03T08:42:28.845Z,994.80
2018-12-03T08:43:31.417Z,994.81
2018-12-03T08:44:31.937Z,994.78
2018-12-03T08:58:33.717Z,994.83
2018-12-03T08:59:34.222Z,994.83
2018-12-03T09:00:34.781Z,994.84
2018-12-03T09:01:35.295Z,994.87
2018-12-03T09:02:35.806Z,994.84
2018-12-03T09:03:36.336Z,994.90
2018-12-03T09:04:36.854Z,994.90
2018-12-03T09:05:37.480Z,994.92
2018-12-03T09:06:38.002Z,994.87
2018-12-03T09:07:38.631Z,994.93
2018-12-03T09:08:39.129Z,994.89
2018-12-03T09:09:40.690Z,994.89
2018-12-03T09:10:41.182Z,994.91
2018-12-03T09:11:41.717Z,994.98
2018-12-03T09:12:42.249Z,995.00
2018-12-03T09:13:43.781Z,994.96
2018-12-03T09:14:44.293Z,994.93
2018-12-03T09:15:44.824Z,995.01
2018-12-03T09:16:45.318Z,995.02
2018-12-03T09:17:45.813Z,995.01
2018-12-03T09:18:46.414Z,995.00
2018-12-03T09:19:46.912Z,995.00
2018-12-03T09:20:47.423Z,994.97
2018-12-03T09:21:48.041Z,995.06
2018-12-03T09:22:48.539Z,995.08
2018-12-03T09:23:49.165Z,995.07
2018-12-03T09:24:49.696Z,995.04
2018-12-03T09:25:50.318Z,995.06
2018-12-03T09:26:50.824Z,995.05
2018-12-03T09:27:51.349Z,995.09
2018-12-03T09:28:51.849Z,995.13
2018-12-03T09:29:52.404Z,995.10
2018-12-03T09:30:52.902Z,995.15
2018-12-03T09:31:53.527Z,995.13
2018-12-03T09:32:54.023Z,995.16
2018-12-03T09:33:54.525Z,995.20
2018-12-03T09:34:55.092Z,995.16
2018-12-03T09:35:55.600Z,995.13
2018-12-03T09:36:56.097Z,995.16
2018-12-03T09:37:56.644Z,995.09
2018-12-03T09:38:57.190Z,995.13
2018-12-03T09:39:57.685Z,995.16
2018-12-03T09:40:58.304Z,995.12
2018-12-03T09:41:58.811Z,995.14
2018-12-03T09:42:59.317Z,995.19
2018-12-03T09:43:59.815Z,995.24
2018-12-03T09:45:00.352Z,995.20
2018-12-03T09:46:00.930Z,995.27
2018-12-03T09:47:03.201Z,995.26
2018-12-03T09:48:04.099Z,995.25
2018-12-03T09:49:06.341Z,995.24
2018-12-03T09:50:06.993Z,995.29
2018-12-03T09:51:07.990Z,995.22
2018-12-03T09:52:09.085Z,995.21
2018-12-03T09:53:09.652Z,995.24
2018-12-03T09:54:10.872Z,995.24
2018-12-03T09:55:11.954Z,995.19
2018-12-03T09:56:13.775Z,995.20
2018-12-03T09:57:14.354Z,995.16
2018-12-03T09:58:15.231Z,995.17
2018-12-03T09:59:16.440Z,995.16
2018-12-03T10:00:17.024Z,995.23
2018-12-03T10:01:17.783Z,995.15
2018-12-03T10:02:18.468Z,995.26
2018-12-03T10:03:19.282Z,995.21
2018-12-03T10:04:19.971Z,995.17
2018-12-03T10:05:20.707Z,995.16
2018-12-03T10:06:21.335Z,995.16
2018-12-03T10:07:22.126Z,995.14
2018-12-03T10:08:23.266Z,995.17
2018-12-03T10:09:24.190Z,995.07
2018-12-03T10:10:25.198Z,995.10
2018-12-03T10:11:26.137Z,995.15
2018-12-03T10:12:26.864Z,995.12
2018-12-03T10:13:27.898Z,995.12
2018-12-03T10:14:28.824Z,995.08
2018-12-03T10:15:30.049Z,995.11
2018-12-03T10:16:31.161Z,995.08
2018-12-03T10:17:33.286Z,995.16
2018-12-03T10:18:34.069Z,995.05
2018-12-03T10:19:34.802Z,995.01
2018-12-03T10:20:35.477Z,995.00
2018-12-03T10:21:36.235Z,995.09
2018-12-03T10:22:36.917Z,995.06
2018-12-03T10:23:37.588Z,995.08
2018-12-03T10:24:38.286Z,995.07
2018-12-03T10:25:40.971Z,994.99
2018-12-03T10:26:41.678Z,994.95
2018-12-03T10:27:42.424Z,994.96
2018-12-03T10:28:43.105Z,994.95
2018-12-03T10:29:43.904Z,995.02
2018-12-03T10:30:44.615Z,994.96
2018-12-03T10:31:45.233Z,995.00
2018-12-03T10:32:45.952Z,994.95
2018-12-03T10:33:46.669Z,995.05
2018-12-03T10:34:47.479Z,994.98
2018-12-03T10:35:48.191Z,994.95
2018-12-03T10:36:55.785Z,994.98
2018-12-03T10:37:56.478Z,994.99
2018-12-03T10:38:59.295Z,994.97
2018-12-03T10:39:59.974Z,995.00
2018-12-03T10:41:21.760Z,995.01
2018-12-03T10:42:22.458Z,994.99
2018-12-03T10:43:23.258Z,995.04
2018-12-03T10:44:23.951Z,995.00
2018-12-03T10:45:26.271Z,994.97
2018-12-03T10:46:25.407Z,994.92
2018-12-03T10:47:42.859Z,994.97
2018-12-03T10:48:43.543Z,994.94
2018-12-03T10:49:58.863Z,994.88
2018-12-03T10:50:59.520Z,994.90
2018-12-03T10:52:02.254Z,994.93
2018-12-03T10:53:02.957Z,994.91
2018-12-03T10:54:05.774Z,994.91
2018-12-03T10:55:06.421Z,994.87
2018-12-03T10:56:08.224Z,994.87
2018-12-03T10:57:08.885Z,994.85
2018-12-03T10:58:10.691Z,994.86
2018-12-03T10:59:11.358Z,994.91
2018-12-03T11:00:12.148Z,994.81
2018-12-03T11:01:12.797Z,994.87
2018-12-03T11:02:13.594Z,994.85
2018-12-03T11:03:14.262Z,994.89
2018-12-03T11:04:15.010Z,994.91
2018-12-03T11:05:15.733Z,994.85
2018-12-03T11:06:16.463Z,994.87
2018-12-03T11:07:17.124Z,994.82
2018-12-03T11:08:17.799Z,994.79
2018-12-03T11:09:18.483Z,994.74
2018-12-03T11:10:19.233Z,994.73
2018-12-03T11:11:19.939Z,994.73
2018-12-03T11:12:20.701Z,994.72
2018-12-03T11:13:21.384Z,994.78
2018-12-03T11:14:22.158Z,994.77
2018-12-03T11:15:22.830Z,994.77
2018-12-03T11:16:23.597Z,994.67
2018-12-03T11:17:24.260Z,994.74
2018-12-03T11:26:37.959Z,994.70
2018-12-03T11:27:39.008Z,994.67
2018-12-03T11:28:39.770Z,994.66
2018-12-03T11:29:40.501Z,994.65
2018-12-03T11:30:48.044Z,994.56
2018-12-03T11:31:48.775Z,994.57
2018-12-03T11:32:56.976Z,994.63
2018-12-03T11:33:57.666Z,994.60
2018-12-03T11:35:05.960Z,994.62
2018-12-03T11:36:05.655Z,994.60
2018-12-03T11:37:12.962Z,994.55
2018-12-03T11:38:13.651Z,994.59
2018-12-03T11:39:23.020Z,994.69
2018-12-03T11:40:23.704Z,994.60
2018-12-03T11:41:25.494Z,994.62
2018-12-03T11:42:26.176Z,994.61
2018-12-03T11:43:28.894Z,994.56
2018-12-03T11:44:29.583Z,994.58
2018-12-03T11:45:45.985Z,994.63
2018-12-03T11:46:46.662Z,994.58
2018-12-03T11:49:27.700Z,994.59
2018-12-03T11:50:43.044Z,994.62
2018-12-03T11:51:43.730Z,994.64
2018-12-03T11:52:53.000Z,994.58
2018-12-03T11:53:53.708Z,994.61
2018-12-03T11:55:11.029Z,994.60
2018-12-03T11:56:11.751Z,994.61
2018-12-03T11:57:12.496Z,994.58
2018-12-03T11:58:13.159Z,994.59
2018-12-03T11:59:39.517Z,994.44
2018-12-03T12:00:40.235Z,994.48
2018-12-03T12:47:54.618Z,994.11
2018-12-03T12:48:55.322Z,994.05
2018-12-03T12:49:56.029Z,994.03
2018-12-03T12:50:56.714Z,994.02
2018-12-03T12:51:57.390Z,993.96
2018-12-03T12:52:58.406Z,993.95
2018-12-03T12:53:59.121Z,993.92
2018-12-03T12:54:59.799Z,993.89
2018-12-03T12:56:00.570Z,993.95
2018-12-03T12:57:01.264Z,993.91
2018-12-03T12:58:02.022Z,993.97
2018-12-03T12:59:02.686Z,993.92
2018-12-03T13:00:03.460Z,993.95
2018-12-03T13:01:04.144Z,993.96
2018-12-03T13:02:04.907Z,993.94
2018-12-03T13:03:05.600Z,993.97
2018-12-03T13:04:06.270Z,993.91
2018-12-03T13:05:07.160Z,993.96
2018-12-03T13:06:07.826Z,993.98
2018-12-03T13:07:08.762Z,993.95
2018-12-03T13:08:09.433Z,993.88
2018-12-03T13:09:10.245Z,993.86
2018-12-03T13:10:10.964Z,993.86
2018-12-03T13:11:11.643Z,993.85
2018-12-03T13:12:12.383Z,993.86
2018-12-03T15:02:03.083Z,993.33
2018-12-03T15:03:03.858Z,993.26
2018-12-03T15:04:04.566Z,993.27
2018-12-03T15:05:07.355Z,993.34
2018-12-03T15:06:08.024Z,993.32
2018-12-03T15:07:16.588Z,993.31
2018-12-03T15:08:17.339Z,993.34
2018-12-03T15:09:18.130Z,993.31
2018-12-03T15:10:18.800Z,993.31
2018-12-03T15:11:20.602Z,993.32
2018-12-03T15:12:21.273Z,993.32
2018-12-03T15:13:23.254Z,993.37
2018-12-03T15:14:23.788Z,993.33
2018-12-03T15:15:24.461Z,993.34
2018-12-03T15:16:25.385Z,993.34
2018-12-03T15:17:26.047Z,993.27
2018-12-03T15:18:26.905Z,993.28
2018-12-03T15:19:27.590Z,993.25
2018-12-03T15:20:30.325Z,993.24
2018-12-03T15:21:30.983Z,993.26
2018-12-03T15:22:31.740Z,993.28
2018-12-03T15:23:32.419Z,993.33
2018-12-03T15:24:35.123Z,993.34
2018-12-03T15:25:35.846Z,993.33
2018-12-03T15:26:43.636Z,993.31
2018-12-03T15:27:44.319Z,993.32
2018-12-03T15:28:52.992Z,993.33
2018-12-03T15:29:53.689Z,993.34
2018-12-03T15:31:00.980Z,993.41
2018-12-03T15:32:01.689Z,993.39
2018-12-03T15:33:09.002Z,993.36
2018-12-03T15:34:09.657Z,993.40
2018-12-03T15:35:18.007Z,993.39
2018-12-03T15:36:18.714Z,993.39
2018-12-03T15:37:27.056Z,993.42
2018-12-03T15:38:27.685Z,993.40
2018-12-03T15:39:28.461Z,993.41
2018-12-03T15:40:29.139Z,993.39
2018-12-03T15:41:31.852Z,993.39
2018-12-03T15:42:32.526Z,993.43
2018-12-03T15:43:42.016Z,993.39
2018-12-03T15:44:42.684Z,993.42
2018-12-03T15:45:43.380Z,993.42
2018-12-03T15:46:46.142Z,993.42
2018-12-03T15:47:46.817Z,993.41
2018-12-03T15:48:47.683Z,993.40
2018-12-03T15:49:48.479Z,993.41
2018-12-03T15:50:49.314Z,993.45
2018-12-03T15:51:49.998Z,993.47
2018-12-03T15:52:50.704Z,993.42
2018-12-03T15:54:06.037Z,993.42
2018-12-03T15:55:06.720Z,993.44
2018-12-03T15:56:14.041Z,993.39
2018-12-03T15:57:14.739Z,993.41
2018-12-03T15:58:16.519Z,993.38
2018-12-03T15:59:17.183Z,993.46
2018-12-03T16:00:17.965Z,993.50
2018-12-03T16:01:18.641Z,993.50
2018-12-03T16:02:27.034Z,993.53
2018-12-03T16:03:27.650Z,993.49
2018-12-03T16:04:37.033Z,993.51
2018-12-03T16:05:37.725Z,993.51
2018-12-03T16:06:40.532Z,993.56
2018-12-03T16:07:41.218Z,993.52
2018-12-03T16:08:42.995Z,993.58
2018-12-03T16:09:43.697Z,993.55
2018-12-03T16:11:01.038Z,993.57
2018-12-03T16:12:01.710Z,993.50
2018-12-03T16:13:03.501Z,993.45
2018-12-03T16:14:04.221Z,993.47
2018-12-03T16:15:26.971Z,993.40
2018-12-03T16:16:27.725Z,993.45
2018-12-03T16:17:52.984Z,993.46
2018-12-03T16:18:53.683Z,993.50
2018-12-03T16:20:03.035Z,993.52
2018-12-03T16:21:03.721Z,993.51
2018-12-03T16:22:11.058Z,993.61
2018-12-03T16:23:11.819Z,993.56
2018-12-03T16:24:21.498Z,993.52
2018-12-03T16:25:22.167Z,993.51
2018-12-03T16:26:22.942Z,993.52
2018-12-03T16:27:23.621Z,993.51
2018-12-03T16:28:24.415Z,993.51
2018-12-03T16:29:25.055Z,993.56
2018-12-03T16:30:26.875Z,993.52
2018-12-03T16:31:27.546Z,993.54
2018-12-03T16:32:29.363Z,993.54
2018-12-03T16:33:29.999Z,993.49
2018-12-03T16:34:30.763Z,993.48
2018-12-03T16:35:31.438Z,993.47
2018-12-03T16:36:33.234Z,993.47
2018-12-03T16:37:33.916Z,993.47
2018-12-03T16:38:34.707Z,993.46
2018-12-03T16:39:35.389Z,993.50
2018-12-03T16:40:36.040Z,993.46
2018-12-03T16:41:44.550Z,993.42
2018-12-03T16:42:45.441Z,993.42
2018-12-03T16:43:47.219Z,993.42
2018-12-03T16:44:47.937Z,993.44
2018-12-03T16:45:49.719Z,993.42
2018-12-03T16:46:50.359Z,993.43
2018-12-03T16:47:52.191Z,993.40
2018-12-03T16:48:52.864Z,993.34
2018-12-03T16:49:53.629Z,993.36
2018-12-03T16:50:54.290Z,993.32
2018-12-03T16:51:55.060Z,993.34
2018-12-03T16:52:55.760Z,993.32
2018-12-03T16:53:58.569Z,993.30
2018-12-03T16:54:59.243Z,993.30
2018-12-03T16:56:01.026Z,993.35
2018-12-03T16:57:01.717Z,993.33
2018-12-03T16:58:02.404Z,993.31
2018-12-03T16:59:03.191Z,993.33
2018-12-03T17:00:03.858Z,993.29
2018-12-03T17:01:06.615Z,993.30
2018-12-03T17:02:07.267Z,993.28
2018-12-03T17:03:07.939Z,993.27
2018-12-03T17:04:09.781Z,993.31
2018-12-03T17:05:10.353Z,993.30
2018-12-03T17:06:11.134Z,993.32
2018-12-03T17:07:14.153Z,993.30
2018-12-03T17:08:12.576Z,993.28
2018-12-03T17:09:13.306Z,993.31
2018-12-03T17:10:14.034Z,993.28
2018-12-03T17:11:14.698Z,993.28
2018-12-03T17:12:15.478Z,993.25
2018-12-03T17:13:16.158Z,993.24
2018-12-03T17:14:16.932Z,993.23
2018-12-03T17:15:17.594Z,993.22
2018-12-03T17:16:18.356Z,993.17
2018-12-03T17:17:19.056Z,993.22
2018-12-03T17:18:20.033Z,993.17